Time;durP1;ratioP1;P1;durP2;ratioP2;P2;SDS_P1;SDS_P2;PMS_P1;PMS_P2;Temp;Humidity;BMP_temperature;BMP_pressure;BME280_temperature;BME280_humidity;BME280_pressure;Samples;Min_cycle;Max_cycle;Signal;HPM_P1;HPM_P2
2021/07/08 00:00:17;;;;;;;8.18;4.95;;;;;;;;;;5051915;28;20017;-87
2021/07/08 00:02:44;;;;;;;13.60;4.97;;;;;;;;;;5052040;28;20021;-88
2021/07/08 00:05:11;;;;;;;9.32;5.20;;;;;;;;;;5051374;28;20025;-88
2021/07/08 00:07:36;;;;;;;9.15;4.45;;;;;;;;;;5052094;28;20472;-88
2021/07/08 00:10:04;;;;;;;9.27;4.80;;;;;;;;;;5051811;28;20032;-89
2021/07/08 00:12:29;;;;;;;10.98;4.93;;;;;;;;;;5051723;28;20017;-88
2021/07/08 00:14:54;;;;;;;14.00;5.88;;;;;;;;;;5051963;28;20021;-88
2021/07/08 00:17:20;;;;;;;9.85;4.88;;;;;;;;;;5052006;28;20022;-89
2021/07/08 00:19:45;;;;;;;10.38;4.65;;;;;;;;;;5053128;28;20337;-88
2021/07/08 00:22:10;;;;;;;10.82;4.97;;;;;;;;;;5052228;28;20481;-89
2021/07/08 00:24:35;;;;;;;11.77;4.70;;;;;;;;;;5051934;28;20465;-89
2021/07/08 00:27:01;;;;;;;6.38;4.53;;;;;;;;;;5052081;28;20021;-88
2021/07/08 00:29:26;;;;;;;8.48;4.72;;;;;;;;;;5051510;28;20067;-88
2021/07/08 00:31:51;;;;;;;14.25;4.68;;;;;;;;;;5055438;28;20029;-88
2021/07/08 00:34:16;;;;;;;10.90;4.97;;;;;;;;;;5055547;28;20024;-88
2021/07/08 00:36:42;;;;;;;11.20;5.30;;;;;;;;;;5055706;28;20040;-88
2021/07/08 00:39:07;;;;;;;7.68;5.07;;;;;;;;;;5055651;28;20174;-89
2021/07/08 00:41:32;;;;;;;11.20;6.47;;;;;;;;;;5055665;28;20021;-89
2021/07/08 00:43:57;;;;;;;10.30;5.63;;;;;;;;;;5055515;28;20021;-88
2021/07/08 00:46:23;;;;;;;15.45;6.38;;;;;;;;;;5055732;28;20036;-88
2021/07/08 00:48:48;;;;;;;16.10;6.72;;;;;;;;;;5055382;28;20031;-88
2021/07/08 00:51:13;;;;;;;13.68;6.05;;;;;;;;;;5055550;28;20072;-88
2021/07/08 00:54:00;;;;;;;11.63;6.30;;;;;;;;;;5055412;28;20019;-89
2021/07/08 00:56:33;;;;;;;13.05;6.20;;;;;;;;;;5048479;28;20478;-89
2021/07/08 00:59:05;;;;;;;8.38;5.55;;;;;;;;;;5055131;28;20542;-88
2021/07/08 01:01:31;;;;;;;9.00;6.45;;;;;;;;;;5055302;28;20021;-88
2021/07/08 01:03:56;;;;;;;11.02;6.38;;;;;;;;;;5055331;28;20036;-89
2021/07/08 01:06:22;;;;;;;11.20;5.70;;;;;;;;;;5055468;28;20078;-89
2021/07/08 01:08:47;;;;;;;9.75;5.70;;;;;;;;;;5055444;28;20021;-89
2021/07/08 01:11:13;;;;;;;14.65;5.82;;;;;;;;;;5055188;28;20465;-89
2021/07/08 01:13:38;;;;;;;9.20;5.72;;;;;;;;;;5055305;28;20028;-89
2021/07/08 01:16:03;;;;;;;11.40;6.65;;;;;;;;;;5055107;28;20021;-89
2021/07/08 01:18:28;;;;;;;11.50;6.15;;;;;;;;;;5055070;28;20016;-89
2021/07/08 01:20:54;;;;;;;11.43;6.65;;;;;;;;;;5055207;28;20123;-89
2021/07/08 01:23:19;;;;;;;14.02;6.30;;;;;;;;;;5056240;28;20098;-89
2021/07/08 01:25:44;;;;;;;14.65;7.55;;;;;;;;;;5055130;28;20025;-89
2021/07/08 01:28:10;;;;;;;12.82;6.72;;;;;;;;;;5054762;28;20032;-88
2021/07/08 01:30:35;;;;;;;12.18;6.97;;;;;;;;;;5054727;28;20491;-88
2021/07/08 01:33:00;;;;;;;11.45;6.38;;;;;;;;;;5054657;28;20523;-90
2021/07/08 01:35:26;;;;;;;13.45;6.93;;;;;;;;;;5054841;28;20047;-89
2021/07/08 01:37:51;;;;;;;15.30;7.40;;;;;;;;;;5054865;28;20017;-89
2021/07/08 01:40:18;;;;;;;14.70;6.47;;;;;;;;;;5055801;28;20345;-89
2021/07/08 01:42:43;;;;;;;13.88;7.60;;;;;;;;;;5053781;28;20029;-89
2021/07/08 01:45:11;;;;;;;16.83;8.52;;;;;;;;;;5054397;28;20037;-89
2021/07/08 01:47:36;;;;;;;15.93;7.82;;;;;;;;;;5069497;28;20021;-89
2021/07/08 01:50:02;;;;;;;10.77;6.68;;;;;;;;;;5066582;28;20032;-88
2021/07/08 01:52:27;;;;;;;13.52;7.25;;;;;;;;;;5068522;28;20029;-89
2021/07/08 01:54:52;;;;;;;16.63;8.07;;;;;;;;;;5055744;28;20017;-89
2021/07/08 01:57:18;;;;;;;20.15;9.57;;;;;;;;;;5061593;28;20095;-88
2021/07/08 01:59:43;;;;;;;18.35;7.95;;;;;;;;;;5071190;28;20146;-89
2021/07/08 02:02:09;;;;;;;16.50;7.43;;;;;;;;;;5069462;28;20361;-88
2021/07/08 02:04:34;;;;;;;12.90;7.20;;;;;;;;;;5074137;28;20016;-88
2021/07/08 02:06:59;;;;;;;15.65;7.38;;;;;;;;;;5064918;28;20487;-89
2021/07/08 02:09:24;;;;;;;20.73;6.80;;;;;;;;;;5070635;28;20558;-88
2021/07/08 02:11:50;;;;;;;15.73;6.80;;;;;;;;;;5054001;28;20079;-88
2021/07/08 02:14:15;;;;;;;11.15;8.18;;;;;;;;;;5070770;28;20025;-88
2021/07/08 02:16:40;;;;;;;12.55;7.80;;;;;;;;;;5070717;28;20013;-88
2021/07/08 02:19:06;;;;;;;13.93;7.85;;;;;;;;;;5067791;28;20020;-89
2021/07/08 02:21:31;;;;;;;15.85;8.27;;;;;;;;;;5067660;28;20052;-88
2021/07/08 02:23:57;;;;;;;13.18;7.32;;;;;;;;;;5053830;28;20079;-88
2021/07/08 02:26:22;;;;;;;14.57;7.47;;;;;;;;;;5071745;28;20073;-88
2021/07/08 02:28:47;;;;;;;10.98;6.25;;;;;;;;;;5065991;28;20024;-89
2021/07/08 02:31:13;;;;;;;14.38;7.38;;;;;;;;;;5059854;28;20392;-87
2021/07/08 02:33:38;;;;;;;14.15;7.50;;;;;;;;;;5073474;28;20016;-88
2021/07/08 02:36:04;;;;;;;16.08;8.32;;;;;;;;;;5060676;28;20021;-88
2021/07/08 02:38:29;;;;;;;24.52;9.88;;;;;;;;;;5073218;28;20021;-89
2021/07/08 02:40:55;;;;;;;15.73;8.93;;;;;;;;;;5061796;28;20143;-88
2021/07/08 02:43:20;;;;;;;9.63;6.97;;;;;;;;;;5070464;28;20017;-88
2021/07/08 02:45:45;;;;;;;15.02;7.47;;;;;;;;;;5053215;28;20033;-89
2021/07/08 02:48:12;;;;;;;9.05;6.47;;;;;;;;;;5068685;28;20035;-88
2021/07/08 02:50:41;;;;;;;12.55;7.47;;;;;;;;;;5073223;28;20016;-88
2021/07/08 02:53:06;;;;;;;12.15;6.63;;;;;;;;;;5058350;28;20349;-88
2021/07/08 02:55:32;;;;;;;10.43;7.20;;;;;;;;;;5071782;28;20070;-88
2021/07/08 02:57:59;;;;;;;14.52;7.20;;;;;;;;;;5061325;28;20025;-88
2021/07/08 03:00:24;;;;;;;10.95;7.80;;;;;;;;;;5057239;28;20077;-87
2021/07/08 03:02:50;;;;;;;18.38;7.93;;;;;;;;;;5068395;28;20491;-88
2021/07/08 03:05:16;;;;;;;17.02;8.43;;;;;;;;;;5072826;28;20055;-88
2021/07/08 03:07:41;;;;;;;22.70;11.15;;;;;;;;;;5072840;28;20025;-88
2021/07/08 03:10:07;;;;;;;22.40;9.95;;;;;;;;;;5072829;28;20031;-88
2021/07/08 03:12:33;;;;;;;20.90;9.73;;;;;;;;;;5072546;28;20030;-88
2021/07/08 03:14:58;;;;;;;17.58;8.82;;;;;;;;;;5061615;28;20119;-88
2021/07/08 03:17:23;;;;;;;12.20;8.07;;;;;;;;;;5069747;28;20016;-88
2021/07/08 03:19:49;;;;;;;14.95;8.45;;;;;;;;;;5072695;28;20020;-88
2021/07/08 03:22:14;;;;;;;17.40;8.65;;;;;;;;;;5072567;28;20059;-88
2021/07/08 03:24:39;;;;;;;14.60;8.10;;;;;;;;;;5058928;28;20452;-88
2021/07/08 03:27:05;;;;;;;15.07;8.00;;;;;;;;;;5052494;28;20039;-88
2021/07/08 03:29:30;;;;;;;16.33;8.65;;;;;;;;;;5052334;28;20464;-88
2021/07/08 03:31:55;;;;;;;19.75;8.27;;;;;;;;;;5059781;28;20025;-87
2021/07/08 03:34:20;;;;;;;17.92;8.88;;;;;;;;;;5063613;28;20040;-88
2021/07/08 03:36:45;;;;;;;13.02;7.38;;;;;;;;;;5073101;28;20372;-87
2021/07/08 03:39:11;;;;;;;16.90;7.30;;;;;;;;;;5057856;28;20017;-88
2021/07/08 03:41:36;;;;;;;14.07;7.97;;;;;;;;;;5052394;28;20106;-88
2021/07/08 03:44:01;;;;;;;14.23;6.82;;;;;;;;;;5064535;28;20028;-88
2021/07/08 03:46:26;;;;;;;16.58;7.18;;;;;;;;;;5073493;28;20107;-88
2021/07/08 03:48:52;;;;;;;10.57;6.95;;;;;;;;;;5073491;28;20067;-88
2021/07/08 03:51:17;;;;;;;12.18;7.22;;;;;;;;;;5071978;28;20464;-88
2021/07/08 03:53:42;;;;;;;11.35;7.60;;;;;;;;;;5068354;28;20578;-88
2021/07/08 03:56:07;;;;;;;13.75;7.95;;;;;;;;;;5065472;28;20563;-88
2021/07/08 03:58:33;;;;;;;16.17;9.15;;;;;;;;;;5072127;28;20024;-88
2021/07/08 04:00:58;;;;;;;16.85;8.93;;;;;;;;;;5071843;28;20442;-88
2021/07/08 04:03:23;;;;;;;14.90;8.32;;;;;;;;;;5066017;28;20446;-88
2021/07/08 04:05:49;;;;;;;17.88;7.93;;;;;;;;;;5071552;28;20020;-88
2021/07/08 04:08:14;;;;;;;24.48;8.23;;;;;;;;;;5072113;28;20024;-88
2021/07/08 04:10:40;;;;;;;13.43;8.23;;;;;;;;;;5068198;28;20028;-88
2021/07/08 04:13:08;;;;;;;12.00;7.85;;;;;;;;;;5061617;28;20158;-88
2021/07/08 04:15:33;;;;;;;15.10;7.57;;;;;;;;;;5053904;28;20051;-88
2021/07/08 04:17:59;;;;;;;13.80;8.18;;;;;;;;;;5072160;28;20024;-88
2021/07/08 04:20:24;;;;;;;15.27;7.82;;;;;;;;;;5072091;28;20031;-88
2021/07/08 04:22:50;;;;;;;12.30;8.23;;;;;;;;;;5066155;28;20024;-88
2021/07/08 04:25:15;;;;;;;16.38;8.18;;;;;;;;;;5054594;28;20032;-88
2021/07/08 04:27:41;;;;;;;15.15;8.98;;;;;;;;;;5051637;28;20056;-88
2021/07/08 04:30:08;;;;;;;19.40;9.02;;;;;;;;;;5051443;28;20029;-88
2021/07/08 04:32:34;;;;;;;15.70;8.32;;;;;;;;;;5067312;28;20025;-88
2021/07/08 04:34:59;;;;;;;14.88;7.97;;;;;;;;;;5071963;28;20027;-88
2021/07/08 04:37:25;;;;;;;13.20;7.85;;;;;;;;;;5071930;28;20021;-88
2021/07/08 04:39:50;;;;;;;16.10;7.93;;;;;;;;;;5065951;28;20024;-88
2021/07/08 04:42:15;;;;;;;13.63;8.60;;;;;;;;;;5051893;28;20075;-88
2021/07/08 04:44:40;;;;;;;19.75;9.88;;;;;;;;;;5069287;28;20035;-88
2021/07/08 04:47:06;;;;;;;17.50;10.63;;;;;;;;;;5071764;28;20060;-88
2021/07/08 04:49:32;;;;;;;17.80;10.40;;;;;;;;;;5058749;28;20017;-88
2021/07/08 04:51:57;;;;;;;19.83;11.00;;;;;;;;;;5064207;28;20060;-88
2021/07/08 04:54:22;;;;;;;26.33;11.43;;;;;;;;;;5063399;28;20054;-88
2021/07/08 04:56:47;;;;;;;22.55;11.68;;;;;;;;;;5065402;28;20063;-88
2021/07/08 04:59:12;;;;;;;21.23;11.55;;;;;;;;;;5058893;28;20020;-88
2021/07/08 05:01:38;;;;;;;20.67;10.73;;;;;;;;;;5071603;28;20025;-88
2021/07/08 05:04:03;;;;;;;20.73;11.20;;;;;;;;;;5052427;28;20403;-89
2021/07/08 05:06:28;;;;;;;20.30;10.30;;;;;;;;;;5062746;28;20430;-88
2021/07/08 05:08:53;;;;;;;16.13;10.75;;;;;;;;;;5057355;28;20100;-89
2021/07/08 05:11:19;;;;;;;17.83;10.27;;;;;;;;;;5062426;28;20025;-88
2021/07/08 05:13:44;;;;;;;24.95;11.45;;;;;;;;;;5065557;28;20017;-88
2021/07/08 05:16:09;;;;;;;19.92;11.02;;;;;;;;;;5058416;28;20048;-88
2021/07/08 05:18:34;;;;;;;24.30;12.63;;;;;;;;;;5074506;28;20027;-88
2021/07/08 05:21:00;;;;;;;22.27;11.93;;;;;;;;;;5070127;28;20457;-88
2021/07/08 05:23:26;;;;;;;23.73;12.02;;;;;;;;;;5054981;28;20036;-88
2021/07/08 05:25:51;;;;;;;22.73;12.00;;;;;;;;;;5055317;28;21461;-88
2021/07/08 05:28:17;;;;;;;24.48;12.55;;;;;;;;;;5058191;28;20056;-88
2021/07/08 05:30:42;;;;;;;21.13;13.25;;;;;;;;;;5069271;28;20051;-88
2021/07/08 05:33:07;;;;;;;24.48;14.13;;;;;;;;;;5074779;28;20383;-88
2021/07/08 05:35:33;;;;;;;32.13;14.98;;;;;;;;;;5061998;28;20009;-88
2021/07/08 05:37:58;;;;;;;31.02;14.70;;;;;;;;;;5073037;28;20099;-89
2021/07/08 05:40:23;;;;;;;30.05;14.98;;;;;;;;;;5074678;28;20013;-88
2021/07/08 05:42:49;;;;;;;26.45;15.40;;;;;;;;;;5060377;28;20021;-88
2021/07/08 05:45:15;;;;;;;25.40;13.75;;;;;;;;;;5074470;28;20128;-88
2021/07/08 05:47:40;;;;;;;24.02;14.20;;;;;;;;;;5074257;28;20479;-88
2021/07/08 05:50:05;;;;;;;28.00;14.07;;;;;;;;;;5069602;28;20021;-89
2021/07/08 05:52:31;;;;;;;24.83;14.30;;;;;;;;;;5066541;28;20052;-88
2021/07/08 05:54:56;;;;;;;23.05;14.63;;;;;;;;;;5065780;28;20025;-87
2021/07/08 05:57:21;;;;;;;28.20;14.10;;;;;;;;;;5056986;28;20032;-87
2021/07/08 05:59:47;;;;;;;31.58;14.63;;;;;;;;;;5062063;28;20029;-88
2021/07/08 06:02:12;;;;;;;29.33;14.38;;;;;;;;;;5068432;28;20074;-88
2021/07/08 06:04:38;;;;;;;28.38;14.75;;;;;;;;;;5060406;28;20012;-88
2021/07/08 06:07:03;;;;;;;26.13;14.82;;;;;;;;;;5069218;28;20077;-88
2021/07/08 06:09:29;;;;;;;26.05;14.80;;;;;;;;;;5053731;28;20025;-87
2021/07/08 06:11:54;;;;;;;35.15;17.60;;;;;;;;;;5059779;28;20040;-88
2021/07/08 06:14:19;;;;;;;37.67;16.67;;;;;;;;;;5067826;28;20016;-88
2021/07/08 06:16:44;;;;;;;32.65;16.25;;;;;;;;;;5061927;28;20078;-89
2021/07/08 06:19:09;;;;;;;31.70;16.25;;;;;;;;;;5057198;28;20017;-88
2021/07/08 06:21:35;;;;;;;26.77;13.52;;;;;;;;;;5067505;28;20418;-88
2021/07/08 06:24:00;;;;;;;22.15;12.57;;;;;;;;;;5055227;28;20017;-89
2021/07/08 06:26:25;;;;;;;24.02;12.38;;;;;;;;;;5063000;28;20488;-88
2021/07/08 06:28:50;;;;;;;25.45;12.00;;;;;;;;;;5055086;28;20472;-89
2021/07/08 06:31:16;;;;;;;26.35;11.95;;;;;;;;;;5066873;28;20020;-89
2021/07/08 06:33:43;;;;;;;20.20;10.57;;;;;;;;;;5059973;28;20029;-88
2021/07/08 06:36:09;;;;;;;15.93;9.20;;;;;;;;;;5053379;28;20024;-88
2021/07/08 06:38:34;;;;;;;18.65;8.57;;;;;;;;;;5054281;28;20021;-88
2021/07/08 06:40:59;;;;;;;21.35;9.00;;;;;;;;;;5063033;28;20582;-89
2021/07/08 06:43:24;;;;;;;15.20;8.20;;;;;;;;;;5055601;28;20473;-88
2021/07/08 06:45:49;;;;;;;21.75;8.88;;;;;;;;;;5079245;28;20030;-89
2021/07/08 06:48:15;;;;;;;14.68;7.70;;;;;;;;;;5071389;28;20028;-89
2021/07/08 06:50:42;;;;;;;13.40;7.55;;;;;;;;;;5074653;28;20093;-88
2021/07/08 06:53:07;;;;;;;11.38;7.13;;;;;;;;;;5072899;28;20125;-88
2021/07/08 06:55:33;;;;;;;14.43;6.32;;;;;;;;;;5063622;28;20020;-89
2021/07/08 06:57:58;;;;;;;16.42;7.05;;;;;;;;;;5062612;28;20086;-89
2021/07/08 07:00:27;;;;;;;12.88;7.43;;;;;;;;;;5058630;28;20468;-88
2021/07/08 07:02:53;;;;;;;21.25;8.20;;;;;;;;;;5085668;28;20025;-88
2021/07/08 07:05:19;;;;;;;18.55;8.05;;;;;;;;;;5056703;28;20115;-88
2021/07/08 07:07:45;;;;;;;19.15;8.20;;;;;;;;;;5053760;28;20112;-88
2021/07/08 07:10:11;;;;;;;21.75;9.48;;;;;;;;;;5063441;28;20115;-88
2021/07/08 07:12:41;;;;;;;13.57;8.77;;;;;;;;;;5052843;28;20025;-87
2021/07/08 07:15:06;;;;;;;20.48;9.70;;;;;;;;;;5053080;28;20017;-88
2021/07/08 07:17:33;;;;;;;18.17;8.57;;;;;;;;;;5052579;28;20013;-88
2021/07/08 07:19:58;;;;;;;21.00;8.85;;;;;;;;;;5052068;28;20093;-88
2021/07/08 07:22:23;;;;;;;17.20;8.00;;;;;;;;;;5068746;28;20107;-88
2021/07/08 07:24:51;;;;;;;22.27;8.82;;;;;;;;;;5072498;28;20020;-88
2021/07/08 07:27:16;;;;;;;24.58;8.23;;;;;;;;;;5058256;28;20491;-88
2021/07/08 07:29:41;;;;;;;14.38;7.55;;;;;;;;;;5067578;28;20025;-89
2021/07/08 07:32:07;;;;;;;17.90;8.32;;;;;;;;;;5064295;28;20030;-88
2021/07/08 07:34:32;;;;;;;14.50;7.80;;;;;;;;;;5068929;28;20419;-88
2021/07/08 07:36:57;;;;;;;16.90;8.10;;;;;;;;;;5062237;28;20128;-88
2021/07/08 07:39:22;;;;;;;17.38;9.00;;;;;;;;;;5065498;28;20555;-87
2021/07/08 07:41:48;;;;;;;14.63;8.00;;;;;;;;;;5072145;28;20020;-87
2021/07/08 07:44:13;;;;;;;14.38;7.93;;;;;;;;;;5058298;28;20087;-88
2021/07/08 07:46:38;;;;;;;19.63;8.40;;;;;;;;;;5057781;28;20484;-87
2021/07/08 07:49:03;;;;;;;14.10;7.82;;;;;;;;;;5048628;28;20033;-88
2021/07/08 07:51:29;;;;;;;15.18;8.68;;;;;;;;;;5101245;28;20017;-88
2021/07/08 07:53:54;;;;;;;17.88;9.38;;;;;;;;;;5067083;28;20032;-88
2021/07/08 07:56:19;;;;;;;14.48;7.38;;;;;;;;;;5058089;28;20052;-87
2021/07/08 07:58:44;;;;;;;15.25;7.65;;;;;;;;;;5052811;28;20025;-87
2021/07/08 08:01:13;;;;;;;21.98;8.48;;;;;;;;;;5049905;28;20025;-85
2021/07/08 08:03:39;;;;;;;19.55;7.32;;;;;;;;;;5054544;28;20021;-87
2021/07/08 08:08:48;;;;;;;13.73;6.30;;;;;;;;;;5054951;28;20028;-87
2021/07/08 08:11:13;;;;;;;15.30;7.07;;;;;;;;;;5060057;28;20029;-88
2021/07/08 08:13:39;;;;;;;10.45;6.50;;;;;;;;;;5055526;28;20024;-88
2021/07/08 08:16:07;;;;;;;13.70;5.53;;;;;;;;;;5055518;28;20647;-87
2021/07/08 08:18:33;;;;;;;13.27;5.65;;;;;;;;;;5056489;28;20468;-88
2021/07/08 08:20:58;;;;;;;13.75;5.55;;;;;;;;;;5063087;28;20039;-87
2021/07/08 08:23:23;;;;;;;9.32;4.65;;;;;;;;;;5053251;28;20020;-87
2021/07/08 08:25:48;;;;;;;11.70;4.82;;;;;;;;;;5061395;28;20100;-88
2021/07/08 08:28:14;;;;;;;15.90;4.30;;;;;;;;;;5061661;28;20021;-89
2021/07/08 08:30:39;;;;;;;9.82;4.55;;;;;;;;;;5066906;28;20046;-87
2021/07/08 08:33:04;;;;;;;16.40;5.00;;;;;;;;;;5053430;28;20028;-87
2021/07/08 08:35:30;;;;;;;10.23;4.45;;;;;;;;;;5061587;28;20490;-87
2021/07/08 08:37:55;;;;;;;10.00;5.13;;;;;;;;;;5058975;28;20373;-87
2021/07/08 08:40:23;;;;;;;11.35;4.70;;;;;;;;;;5058013;28;20384;-87
2021/07/08 08:42:49;;;;;;;10.18;6.00;;;;;;;;;;5052477;28;20074;-89
2021/07/08 08:45:17;;;;;;;14.68;5.78;;;;;;;;;;5050807;28;20036;-86
2021/07/08 08:47:53;;;;;;;12.18;5.05;;;;;;;;;;5063969;28;20025;-87
2021/07/08 08:50:18;;;;;;;14.35;6.07;;;;;;;;;;5052022;28;20025;-87
2021/07/08 08:52:45;;;;;;;17.77;6.80;;;;;;;;;;5061889;28;20027;-88
2021/07/08 08:55:10;;;;;;;12.98;6.63;;;;;;;;;;5090341;28;20483;-87
2021/07/08 08:57:35;;;;;;;15.20;5.88;;;;;;;;;;5062361;28;20012;-88
2021/07/08 09:00:01;;;;;;;15.20;6.35;;;;;;;;;;5055337;28;20485;-88
2021/07/08 09:02:26;;;;;;;16.13;6.13;;;;;;;;;;5074300;28;20020;-89
2021/07/08 09:04:51;;;;;;;8.75;4.80;;;;;;;;;;5055835;28;20038;-90
2021/07/08 09:07:22;;;;;;;8.30;5.32;;;;;;;;;;5057067;28;20020;-89
2021/07/08 09:09:48;;;;;;;14.93;7.07;;;;;;;;;;5054828;28;20029;-89
2021/07/08 09:12:15;;;;;;;17.52;6.78;;;;;;;;;;5054644;28;20040;-90
2021/07/08 09:14:40;;;;;;;13.93;6.82;;;;;;;;;;5051841;28;20018;-90
2021/07/08 09:17:15;;;;;;;21.98;8.77;;;;;;;;;;5069356;28;20536;-89
2021/07/08 09:19:40;;;;;;;16.17;7.45;;;;;;;;;;5074911;28;20017;-89
2021/07/08 09:22:06;;;;;;;15.10;7.10;;;;;;;;;;5076082;28;20012;-89
2021/07/08 09:24:34;;;;;;;16.80;7.35;;;;;;;;;;5074676;28;20020;-89
2021/07/08 09:27:08;;;;;;;14.05;6.78;;;;;;;;;;5058175;28;20055;-89
2021/07/08 09:29:33;;;;;;;11.52;6.70;;;;;;;;;;5073820;28;20019;-89
2021/07/08 09:32:01;;;;;;;13.43;6.95;;;;;;;;;;5074124;28;20016;-89
2021/07/08 09:34:26;;;;;;;14.52;7.07;;;;;;;;;;5089374;28;20062;-88
2021/07/08 09:37:04;;;;;;;14.90;6.60;;;;;;;;;;5064023;28;20528;-89
2021/07/08 09:39:40;;;;;;;16.95;6.10;;;;;;;;;;5074710;28;20013;-91
2021/07/08 09:42:06;;;;;;;10.77;5.50;;;;;;;;;;5061527;28;20025;-91
2021/07/08 09:44:31;;;;;;;14.48;7.05;;;;;;;;;;5068693;28;20100;-91
2021/07/08 09:46:57;;;;;;;9.32;6.28;;;;;;;;;;5062946;28;20527;-91
2021/07/08 09:49:23;;;;;;;14.80;7.30;;;;;;;;;;5060578;28;20495;-89
2021/07/08 09:51:49;;;;;;;13.68;7.65;;;;;;;;;;5068141;28;20075;-90
2021/07/08 09:54:24;;;;;;;16.42;7.25;;;;;;;;;;5058406;28;20029;-90
2021/07/08 09:56:50;;;;;;;17.90;7.10;;;;;;;;;;5069806;28;20013;-91
2021/07/08 09:59:16;;;;;;;8.40;5.47;;;;;;;;;;5074459;28;20104;-91
2021/07/08 10:01:43;;;;;;;9.15;6.38;;;;;;;;;;5054318;28;20021;-90
2021/07/08 10:04:08;;;;;;;12.73;5.97;;;;;;;;;;5074784;28;20044;-91
2021/07/08 10:06:35;;;;;;;14.55;6.65;;;;;;;;;;5074279;28;20145;-91
2021/07/08 10:09:00;;;;;;;14.23;6.65;;;;;;;;;;5059863;28;20074;-91
2021/07/08 10:11:26;;;;;;;21.45;5.95;;;;;;;;;;5075270;28;20476;-91
2021/07/08 10:13:52;;;;;;;16.50;6.15;;;;;;;;;;5074040;28;20048;-91
2021/07/08 10:16:17;;;;;;;16.10;6.78;;;;;;;;;;5070159;28;20487;-91
2021/07/08 10:18:43;;;;;;;15.57;6.28;;;;;;;;;;5064681;28;20020;-90
2021/07/08 10:21:09;;;;;;;14.52;7.00;;;;;;;;;;5092490;28;20471;-92
2021/07/08 10:23:35;;;;;;;19.25;7.65;;;;;;;;;;5061991;28;20028;-91
2021/07/08 10:26:05;;;;;;;11.52;6.60;;;;;;;;;;5053917;28;20024;-91
2021/07/08 10:28:33;;;;;;;15.15;6.32;;;;;;;;;;5054096;28;20460;-91
2021/07/08 10:30:59;;;;;;;30.40;6.78;;;;;;;;;;5056441;28;20028;-91
2021/07/08 10:33:24;;;;;;;13.15;5.60;;;;;;;;;;5066159;28;20052;-91
2021/07/08 10:35:54;;;;;;;15.75;6.50;;;;;;;;;;5054272;28;20439;-91
2021/07/08 10:38:41;;;;;;;17.55;6.70;;;;;;;;;;5073493;28;20086;-91
2021/07/08 10:41:09;;;;;;;12.52;6.88;;;;;;;;;;5060361;28;20025;-91
2021/07/08 10:43:39;;;;;;;14.07;6.28;;;;;;;;;;5053415;28;20067;-90
2021/07/08 10:46:05;;;;;;;12.73;6.38;;;;;;;;;;5058486;28;20480;-91
2021/07/08 10:48:39;;;;;;;11.15;6.20;;;;;;;;;;5066794;28;20078;-90
2021/07/08 10:51:05;;;;;;;14.18;5.78;;;;;;;;;;5058867;28;20025;-91
2021/07/08 10:53:34;;;;;;;16.42;6.32;;;;;;;;;;5059436;28;20015;-91
2021/07/08 10:56:08;;;;;;;17.45;6.93;;;;;;;;;;5064013;28;20465;-91
2021/07/08 10:58:54;;;;;;;14.77;6.60;;;;;;;;;;5053117;28;20496;-91
2021/07/08 11:01:22;;;;;;;11.45;6.65;;;;;;;;;;5053171;28;20025;-91
2021/07/08 11:03:48;;;;;;;9.60;5.88;;;;;;;;;;5056435;28;20028;-91
2021/07/08 11:06:15;;;;;;;15.73;6.97;;;;;;;;;;5065016;28;20029;-91
2021/07/08 11:08:46;;;;;;;12.23;7.00;;;;;;;;;;5054246;28;20021;-91
2021/07/08 11:11:32;;;;;;;14.48;6.65;;;;;;;;;;5053037;28;20048;-91
2021/07/08 11:13:57;;;;;;;10.15;6.50;;;;;;;;;;5055618;28;20021;-92
2021/07/08 11:16:38;;;;;;;10.63;6.18;;;;;;;;;;5059702;28;20397;-91
2021/07/08 11:19:03;;;;;;;9.63;6.13;;;;;;;;;;5059529;28;20028;-92
2021/07/08 11:21:47;;;;;;;20.25;6.80;;;;;;;;;;5052961;28;20021;-92
2021/07/08 11:24:19;;;;;;;13.38;6.95;;;;;;;;;;5052947;28;20023;-92
2021/07/08 11:26:54;;;;;;;12.38;6.55;;;;;;;;;;5053134;28;20025;-92
2021/07/08 11:29:36;;;;;;;12.00;7.60;;;;;;;;;;5070126;28;20123;-91
2021/07/08 11:32:20;;;;;;;12.20;7.13;;;;;;;;;;5061129;28;20032;-92
2021/07/08 11:35:04;;;;;;;11.13;8.13;;;;;;;;;;5044811;28;20048;-92
2021/07/08 11:37:36;;;;;;;11.52;6.18;;;;;;;;;;5056322;28;20016;-91
2021/07/08 11:40:01;;;;;;;;;;;;;;;;;;5053136;28;20025;-92
2021/07/08 11:42:33;;;;;;;10.32;6.50;;;;;;;;;;5052772;28;19908;-92
2021/07/08 11:45:06;;;;;;;12.73;7.32;;;;;;;;;;5055472;28;20430;-92
2021/07/08 11:47:41;;;;;;;15.32;7.00;;;;;;;;;;5065995;28;20025;-92
2021/07/08 11:50:16;;;;;;;11.15;6.93;;;;;;;;;;5039187;28;20013;-91
2021/07/08 11:52:41;;;;;;;12.95;6.63;;;;;;;;;;5067450;28;20123;-91
2021/07/08 11:55:07;;;;;;;11.27;6.00;;;;;;;;;;5070819;28;20048;-92
2021/07/08 11:57:49;;;;;;;11.43;6.85;;;;;;;;;;5061318;28;20040;-91
2021/07/08 12:00:34;;;;;;;10.27;6.90;;;;;;;;;;5059994;28;20113;-92
2021/07/08 12:03:01;;;;;;;9.32;5.90;;;;;;;;;;5062585;28;20028;-92
2021/07/08 12:05:27;;;;;;;12.35;6.97;;;;;;;;;;5058020;28;20036;-92
2021/07/08 12:08:03;;;;;;;14.07;6.90;;;;;;;;;;5072594;28;20033;-91
2021/07/08 12:10:30;;;;;;;10.80;6.55;;;;;;;;;;5070463;28;20032;-92
2021/07/08 12:12:56;;;;;;;11.25;5.78;;;;;;;;;;5061963;28;20499;-91
2021/07/08 12:15:22;;;;;;;9.48;5.00;;;;;;;;;;5072426;28;20353;-92
2021/07/08 12:17:56;;;;;;;12.40;5.50;;;;;;;;;;5060013;28;20020;-92
2021/07/08 12:20:21;;;;;;;8.98;5.13;;;;;;;;;;5059138;28;20013;-92
2021/07/08 12:22:53;;;;;;;14.60;5.15;;;;;;;;;;5071896;28;20020;-92
2021/07/08 12:25:19;;;;;;;11.02;4.72;;;;;;;;;;5060330;28;20112;-91
2021/07/08 12:27:44;;;;;;;7.93;4.88;;;;;;;;;;5074238;28;20565;-92
2021/07/08 12:30:16;;;;;;;8.25;4.57;;;;;;;;;;5065899;28;20025;-91
2021/07/08 12:32:41;;;;;;;12.10;5.50;;;;;;;;;;5067902;28;20025;-92
2021/07/08 12:35:07;;;;;;;13.57;5.60;;;;;;;;;;5064080;28;20376;-92
2021/07/08 12:37:35;;;;;;;9.45;4.90;;;;;;;;;;5070245;28;20024;-92
2021/07/08 12:40:08;;;;;;;8.75;5.22;;;;;;;;;;5064756;28;20019;-92
2021/07/08 12:42:35;;;;;;;9.23;4.95;;;;;;;;;;5075756;28;20111;-91
2021/07/08 12:45:02;;;;;;;11.80;4.28;;;;;;;;;;5063186;28;20024;-91
2021/07/08 12:47:28;;;;;;;7.07;4.30;;;;;;;;;;5077270;28;20024;-91
2021/07/08 12:49:53;;;;;;;7.13;3.88;;;;;;;;;;5062039;28;20028;-92
2021/07/08 12:52:21;;;;;;;5.40;3.35;;;;;;;;;;5065437;28;20024;-91
2021/07/08 12:54:46;;;;;;;10.80;4.10;;;;;;;;;;5055851;28;20021;-91
2021/07/08 12:57:16;;;;;;;5.22;3.40;;;;;;;;;;5074266;28;20028;-92
2021/07/08 12:59:51;;;;;;;6.90;3.35;;;;;;;;;;5065281;28;20039;-92
2021/07/08 13:02:21;;;;;;;9.95;3.78;;;;;;;;;;5066335;28;20448;-92
2021/07/08 13:04:46;;;;;;;9.20;3.42;;;;;;;;;;5055432;28;20040;-92
2021/07/08 13:07:11;;;;;;;6.50;3.38;;;;;;;;;;5058442;28;20070;-92
2021/07/08 13:09:36;;;;;;;5.90;2.90;;;;;;;;;;5066411;28;20024;-92
2021/07/08 13:12:18;;;;;;;7.03;3.42;;;;;;;;;;5069211;28;20024;-92
2021/07/08 13:14:43;;;;;;;11.15;3.50;;;;;;;;;;5055303;28;20555;-92
2021/07/08 13:17:10;;;;;;;9.18;3.00;;;;;;;;;;5055158;28;20074;-93
2021/07/08 13:19:42;;;;;;;5.95;2.80;;;;;;;;;;5062269;28;20020;-92
2021/07/08 13:22:13;;;;;;;9.55;3.42;;;;;;;;;;5075045;28;20101;-92
2021/07/08 13:24:39;;;;;;;7.07;3.53;;;;;;;;;;5042456;28;20024;-92
2021/07/08 13:27:04;;;;;;;8.13;3.50;;;;;;;;;;5055007;28;20431;-92
2021/07/08 13:29:29;;;;;;;6.63;3.90;;;;;;;;;;5054894;28;20381;-91
2021/07/08 13:31:55;;;;;;;8.63;3.63;;;;;;;;;;5055072;28;20028;-91
2021/07/08 13:34:21;;;;;;;4.75;2.97;;;;;;;;;;5054934;28;20025;-92
2021/07/08 13:36:46;;;;;;;8.52;3.22;;;;;;;;;;5063393;28;20084;-92
2021/07/08 13:39:12;;;;;;;5.35;2.85;;;;;;;;;;5073787;28;20020;-93
2021/07/08 13:41:38;;;;;;;7.38;3.10;;;;;;;;;;5066158;28;20026;-92
2021/07/08 13:44:03;;;;;;;10.85;3.90;;;;;;;;;;5055360;28;20017;-92
2021/07/08 13:46:32;;;;;;;5.53;2.88;;;;;;;;;;5073418;28;20385;-92
2021/07/08 13:49:06;;;;;;;8.77;3.45;;;;;;;;;;5063922;28;20063;-92
2021/07/08 13:51:32;;;;;;;11.65;4.10;;;;;;;;;;5072583;28;20073;-92
2021/07/08 13:53:57;;;;;;;8.48;3.63;;;;;;;;;;5055112;28;20104;-92
2021/07/08 13:56:23;;;;;;;6.18;3.15;;;;;;;;;;5066703;28;20131;-92
2021/07/08 13:58:49;;;;;;;4.65;3.10;;;;;;;;;;5070582;28;20021;-92
2021/07/08 14:01:14;;;;;;;7.82;3.30;;;;;;;;;;5060818;28;20025;-92
2021/07/08 14:03:40;;;;;;;8.00;3.60;;;;;;;;;;5056933;28;20162;-92
2021/07/08 14:06:05;;;;;;;6.00;3.45;;;;;;;;;;5074668;28;20028;-92
2021/07/08 14:08:36;;;;;;;4.63;2.85;;;;;;;;;;5060677;28;20123;-91
2021/07/08 14:11:02;;;;;;;11.15;3.08;;;;;;;;;;5060815;28;20066;-91
2021/07/08 14:13:27;;;;;;;4.78;3.03;;;;;;;;;;5061735;28;20017;-92
2021/07/08 14:15:52;;;;;;;5.80;3.58;;;;;;;;;;5073057;28;20020;-92
2021/07/08 14:18:18;;;;;;;8.82;3.10;;;;;;;;;;5065032;28;20100;-92
2021/07/08 14:20:43;;;;;;;7.30;3.33;;;;;;;;;;5070736;28;20057;-92
2021/07/08 14:23:08;;;;;;;5.70;3.08;;;;;;;;;;5066896;28;20056;-92
2021/07/08 14:25:35;;;;;;;4.22;2.88;;;;;;;;;;5068381;28;20131;-92
2021/07/08 14:28:00;;;;;;;6.05;2.45;;;;;;;;;;5067812;28;20115;-92
2021/07/08 14:30:27;;;;;;;7.68;2.70;;;;;;;;;;5054252;28;20060;-92